Straumvik — LEYJ — position and weather

sailwx.info

Track history (hours):
 
Tides and Currents Weather Stations Pressure Air Temp Water Temp Dewpoint Dewpoint Depression Visibility Wind Speed Wind Dir Waves Ship Positions

Straumvik

Last reported at 2016-Aug-31 10:32 UTC. Time now 2016-Sep-28 06:52 UTC.
Position N 69°06' E 017°30'.
Warning: this ship's position is 27 days out of date.

Length 50 m; draft 5 m.

Type: Ship. MMSI: 258260000.

Date/timePositionNaut miles runAvg speedWind from/ knotsBaromVisibWave heightAir tempDewpointWater temp
2016-Aug-31 10:32N 69°06' E 017°30'9 9.0
2016-Aug-31 09:34N 69°09' E 017°54'5 5.3
2016-Aug-31 08:34N 69°09' E 018°09'0 0.0
2016-Aug-31 07:33N 69°09' E 018°09'0 0.0
2016-Aug-31 06:33N 69°09' E 018°09'0 0.0
2016-Aug-31 05:33N 69°09' E 018°09'0 0.4
2016-Aug-31 04:34N 69°09' E 018°07'7 7.2
2016-Aug-31 03:33N 69°08' E 017°47'8 7.7
2016-Aug-31 02:34N 69°06' E 017°27'  
Track history (hours):
 
Tides and Currents Weather Stations Pressure Air Temp Water Temp Dewpoint Dewpoint Depression Visibility Wind Speed Wind Dir Waves Ship Positions

Straumvik

Last reported at 2016-Aug-31 10:32 UTC. Time now 2016-Sep-28 06:52 UTC.
Position N 69°06' E 017°30'.
Warning: this ship's position is 27 days out of date.

Length 50 m; draft 5 m.

Type: Ship. MMSI: 258260000.

Date/timePositionNaut miles runAvg speedWind from/ knotsBaromVisibWave heightAir tempDewpointWater temp
2016-Aug-31 10:32N 69°06' E 017°30'9 9.0
2016-Aug-31 09:34N 69°09' E 017°54'5 5.3
2016-Aug-31 08:34N 69°09' E 018°09'0 0.0
2016-Aug-31 07:33N 69°09' E 018°09'0 0.0
2016-Aug-31 06:33N 69°09' E 018°09'0 0.0
2016-Aug-31 05:33N 69°09' E 018°09'0 0.4
2016-Aug-31 04:34N 69°09' E 018°07'7 7.2
2016-Aug-31 03:33N 69°08' E 017°47'8 7.7
2016-Aug-31 02:34N 69°06' E 017°27'  

Dump ship's entire track history